KTDZ/TDZ METAR and TAF weather

Enter ICAO airport designator
Station Type Date Time Source
KTDZ METAR 2019/12/06 01:53 UTC NOAA

KTDZ 060153Z AUTO 18006KT 10SM OVC100 03/M01 A3004 RMK AO2 SLP177 T00281006


Station Type Date Time Source
KTDZ Decoded METAR 2019/12/06 01:53 UTC NOAA

TOLEDO METCALF FIELD, OH, United States (KTDZ) 41-34N 83-29W 189M
Dec 05, 2019 - 08:53 PM EST / 2019.12.06 0153 UTC
Wind: from the S (180 degrees) at 7 MPH (6 KT):0
Visibility: 10 mile(s):0
Sky conditions: overcast
Temperature: 37.0 F (2.8 C)
Dew Point: 30.9 F (-0.6 C)
Relative Humidity: 78%
Pressure (altimeter): 30.04 in. Hg (1017 hPa)
ob: KTDZ 060153Z AUTO 18006KT 10SM OVC100 03/M01 A3004 RMK AO2 SLP177 T00281006
cycle: 2

Station Type Date Time Source
KTDZ TAF UTC NOAA

Error!

Example: see airport list